Time;durP1;ratioP1;P1;durP2;ratioP2;P2;SDS_P1;SDS_P2;PMS_P1;PMS_P2;Temp;Humidity;BMP_temperature;BMP_pressure;BME280_temperature;BME280_humidity;BME280_pressure;Samples;Min_cycle;Max_cycle;Signal;HPM_P1;HPM_P2
2023/10/17 00:01:33;;;;;;;1.15;1.05;;;;;;;15.66;66.08;98606.41;5140758;27;20043;-93
2023/10/17 00:03:59;;;;;;;1.95;1.05;;;;;;;15.90;66.52;98666.03;5140981;27;20052;-93
2023/10/17 00:06:26;;;;;;;1.85;0.73;;;;;;;16.02;65.67;98643.94;5141807;27;20035;-94
2023/10/17 00:08:52;;;;;;;2.75;1.20;;;;;;;15.87;66.23;98647.41;5141706;27;20062;-92
2023/10/17 00:11:21;;;;;;;3.33;0.98;;;;;;;15.85;66.43;98651.97;5141703;27;20054;-94
2023/10/17 00:16:50;;;;;;;3.72;0.73;;;;;;;15.53;66.49;98619.59;5123907;27;20394;-94
2023/10/17 00:19:18;;;;;;;2.22;0.50;;;;;;;15.62;66.05;98608.41;5127513;28;20032;-94
2023/10/17 00:21:45;;;;;;;2.08;0.50;;;;;;;15.79;66.26;98626.38;5091030;28;20067;-92
2023/10/17 00:24:11;;;;;;;2.00;0.63;;;;;;;15.66;66.68;98636.81;5089450;28;20063;-92
2023/10/17 00:26:37;;;;;;;3.78;0.43;;;;;;;15.92;65.94;98643.56;5114765;28;20044;-92
2023/10/17 00:29:05;;;;;;;4.32;0.80;;;;;;;15.96;65.85;98653.19;5092969;28;20132;-93
2023/10/17 00:31:31;;;;;;;1.35;0.75;;;;;;;16.00;66.30;98662.81;5091751;28;20069;-94
2023/10/17 00:33:58;;;;;;;2.20;0.52;;;;;;;15.47;66.58;98596.63;5088426;28;20048;-93
2023/10/17 00:36:26;;;;;;;2.85;0.63;;;;;;;15.54;66.19;98581.97;5091210;28;20037;-95
2023/10/17 00:38:53;;;;;;;1.17;0.80;;;;;;;15.68;66.37;98607.22;5091108;28;20468;-93
2023/10/17 00:41:47;;;;;;;1.35;0.40;;;;;;;15.75;66.44;98614.91;5090581;28;20036;-93
2023/10/17 00:44:06;;;;;;;2.55;0.60;;;;;;;15.54;66.35;98571.25;5076857;28;20079;-94
2023/10/17 00:46:32;;;;;;;0.90;0.60;;;;;;;15.71;66.45;98607.97;5088489;28;20501;-93
2023/10/17 00:48:59;;;;;;;1.50;0.70;;;;;;;15.33;66.92;98565.19;5092960;28;20044;-93
2023/10/17 00:51:26;;;;;;;0.95;0.50;;;;;;;15.84;66.63;98618.09;5092242;28;20045;-94
2023/10/17 00:53:52;;;;;;;2.60;0.55;;;;;;;15.98;66.20;98627.16;5091274;28;20425;-93
2023/10/17 00:56:17;;;;;;;1.73;0.60;;;;;;;15.85;66.91;98614.44;5111928;28;20097;-93
2023/10/17 00:58:43;;;;;;;2.15;0.50;;;;;;;15.66;66.68;98603.75;5119666;28;20044;-93
2023/10/17 01:01:09;;;;;;;4.45;0.60;;;;;;;16.00;66.54;98649.41;5128170;28;20044;-93
2023/10/17 01:03:41;;;;;;;1.48;0.55;;;;;;;15.72;66.00;98580.22;5088231;28;20040;-94
2023/10/17 01:09:07;;;;;;;1.20;0.32;;;;;;;15.86;65.98;98619.72;5096602;27;20381;-94
2023/10/17 01:11:38;;;;;;;1.83;0.63;;;;;;;15.56;66.59;98595.31;5095424;28;20554;-94
2023/10/17 01:14:05;;;;;;;0.70;0.35;;;;;;;15.92;65.93;98613.19;5099134;28;20063;-94
2023/10/17 01:16:34;;;;;;;1.20;0.40;;;;;;;15.88;65.89;98599.06;5097961;28;20052;-93
2023/10/17 01:19:11;;;;;;;2.05;0.50;;;;;;;15.80;65.14;98571.78;5097468;28;20165;-95
2023/10/17 01:21:40;;;;;;;2.38;0.47;;;;;;;16.04;64.92;98590.22;5095925;28;20048;-93
2023/10/17 01:24:08;;;;;;;2.42;0.55;;;;;;;15.95;65.00;98573.66;5095425;28;20044;-92
2023/10/17 01:29:35;;;;;;;4.90;0.60;;;;;;;16.32;64.10;98616.47;5127145;27;20117;-91
2023/10/17 01:32:02;;;;;;;0.90;0.40;;;;;;;15.72;64.74;98555.22;5104778;28;20044;-93
2023/10/17 01:34:28;;;;;;;1.02;0.40;;;;;;;15.85;64.70;98564.34;5101338;28;20097;-92
2023/10/17 01:36:57;;;;;;;3.80;0.40;;;;;;;16.34;64.58;98631.53;5103510;28;20036;-93
2023/10/17 01:39:25;;;;;;;1.48;0.40;;;;;;;15.73;65.04;98573.06;5099900;28;20036;-94
2023/10/17 01:41:53;;;;;;;3.38;0.70;;;;;;;15.87;65.27;98575.88;5110701;28;20059;-93
2023/10/17 01:44:19;;;;;;;0.82;0.38;;;;;;;16.07;64.70;98601.69;5105470;28;20052;-91
2023/10/17 01:46:46;;;;;;;1.27;0.43;;;;;;;15.87;65.59;98593.78;5107676;28;20046;-92
2023/10/17 01:49:12;;;;;;;1.27;0.85;;;;;;;16.12;65.27;98631.81;5106686;28;20071;-93
2023/10/17 01:51:43;;;;;;;1.30;0.63;;;;;;;15.84;64.89;98551.91;5102161;28;20040;-93
2023/10/17 01:54:14;;;;;;;0.98;0.40;;;;;;;15.51;65.79;98549.13;5102582;28;20052;-94
2023/10/17 01:56:40;;;;;;;1.52;0.45;;;;;;;15.90;65.86;98615.09;5102586;28;20039;-92
2023/10/17 01:59:13;;;;;;;5.10;0.70;;;;;;;15.67;65.69;98573.31;5103315;28;20404;-93
2023/10/17 02:01:40;;;;;;;1.65;0.50;;;;;;;15.69;65.29;98550.00;5102254;28;20504;-95
2023/10/17 02:04:13;;;;;;;1.60;0.40;;;;;;;15.85;64.30;98548.25;5101788;28;20101;-94
2023/10/17 02:06:39;;;;;;;1.92;1.13;;;;;;;15.88;64.66;98563.34;5103002;28;20042;-94
2023/10/17 02:09:22;;;;;;;1.13;0.52;;;;;;;15.87;64.92;98591.09;5103591;28;20048;-94
2023/10/17 02:11:50;;;;;;;1.30;0.50;;;;;;;15.82;64.28;98541.25;5104696;28;20112;-94
2023/10/17 02:14:16;;;;;;;4.07;0.50;;;;;;;16.07;64.17;98580.22;5099678;28;20044;-94
2023/10/17 02:16:43;;;;;;;3.67;0.60;;;;;;;15.99;64.28;98575.25;5102872;28;20070;-94
2023/10/17 02:19:11;;;;;;;2.42;0.47;;;;;;;15.95;64.20;98543.31;5104824;28;20069;-93
2023/10/17 02:21:40;;;;;;;3.88;0.57;;;;;;;15.73;64.63;98540.88;5098973;28;20097;-94
2023/10/17 02:24:06;;;;;;;2.35;0.60;;;;;;;16.16;64.23;98597.66;5107031;28;20040;-92
2023/10/17 02:26:42;;;;;;;1.70;0.43;;;;;;;16.11;64.33;98597.00;5109036;28;20044;-92
2023/10/17 02:29:11;;;;;;;3.47;0.60;;;;;;;15.92;65.12;98600.66;5120824;28;20052;-93
2023/10/17 02:31:38;;;;;;;0.80;0.30;;;;;;;16.05;64.08;98563.34;5102014;28;20047;-94
2023/10/17 02:34:04;;;;;;;1.40;0.60;;;;;;;15.84;65.18;98586.75;5101540;28;20039;-92
2023/10/17 02:36:32;;;;;;;1.95;0.55;;;;;;;16.04;64.59;98592.91;5105055;28;20050;-92
2023/10/17 02:38:58;;;;;;;1.65;0.63;;;;;;;16.15;64.16;98593.22;5098853;28;20038;-94
2023/10/17 02:41:25;;;;;;;4.55;0.70;;;;;;;15.85;65.18;98596.53;5091159;28;20090;-93
2023/10/17 02:43:53;;;;;;;4.45;0.73;;;;;;;16.05;65.29;98633.06;5092799;28;20031;-90
2023/10/17 02:46:19;;;;;;;2.22;0.80;;;;;;;15.78;65.55;98598.66;5087814;28;20039;-94
2023/10/17 02:48:45;;;;;;;2.08;0.57;;;;;;;16.20;64.73;98620.69;5088005;28;20073;-94
2023/10/17 02:54:16;;;;;;;2.20;0.75;;;;;;;15.97;64.65;98597.72;5108432;27;20753;-93
2023/10/17 02:56:53;;;;;;;1.80;1.00;;;;;;;16.22;64.69;98630.38;5113459;28;20443;-93
2023/10/17 02:59:21;;;;;;;5.60;0.65;;;;;;;16.03;64.34;98594.72;5108624;28;20044;-91
2023/10/17 03:01:55;;;;;;;1.63;0.50;;;;;;;15.74;64.79;98569.41;5106640;28;20047;-93
2023/10/17 03:04:24;;;;;;;4.47;1.00;;;;;;;15.94;65.77;98643.47;5106818;28;20098;-92
2023/10/17 03:06:54;;;;;;;4.63;0.60;;;;;;;16.13;64.23;98598.66;5109497;28;20089;-91
2023/10/17 03:12:07;;;;;;;1.00;0.40;;;;;;;16.49;62.70;98616.44;5113230;27;20892;-94
2023/10/17 03:17:35;;;;;;;2.08;0.50;;;;;;;15.72;64.74;98565.94;5107308;27;20919;-89
2023/10/17 03:20:01;;;;;;;2.22;0.50;;;;;;;15.48;65.71;98565.34;5086163;28;20037;-91
2023/10/17 03:22:27;;;;;;;1.17;0.60;;;;;;;15.66;65.00;98564.44;5088911;28;20070;-92
2023/10/17 03:25:02;;;;;;;1.90;0.70;;;;;;;15.48;65.39;98555.47;5087922;28;20063;-92
2023/10/17 03:27:48;;;;;;;0.80;0.43;;;;;;;15.55;65.24;98581.06;5094162;28;20044;-92
2023/10/17 03:30:19;;;;;;;2.00;0.50;;;;;;;15.30;66.16;98564.47;5089265;28;20065;-92
2023/10/17 03:38:52;;;;;;;2.63;0.57;;;;;;;15.79;65.21;98596.88;5153208;27;20385;-94
2023/10/17 03:41:24;;;;;;;0.93;0.63;;;;;;;15.71;65.54;98605.28;5117375;28;20066;-93
2023/10/17 03:43:52;;;;;;;1.05;0.40;;;;;;;15.30;65.93;98575.16;5120132;28;20090;-93
2023/10/17 03:46:18;;;;;;;1.40;0.60;;;;;;;15.66;65.98;98604.63;5147442;27;20062;-92
2023/10/17 03:48:57;;;;;;;3.65;0.70;;;;;;;15.19;66.21;98536.38;5117946;28;20036;-93
2023/10/17 03:51:24;;;;;;;1.52;0.50;;;;;;;15.57;66.64;98621.16;5116188;28;20036;-93
2023/10/17 03:53:53;;;;;;;2.00;0.47;;;;;;;15.38;65.73;98548.88;5117879;28;20042;-93
2023/10/17 03:56:23;;;;;;;1.65;0.70;;;;;;;15.80;65.25;98618.22;5117058;28;20054;-91
2023/10/17 04:01:50;;;;;;;7.47;0.80;;;;;;;15.57;65.51;98595.25;5121006;27;21093;-94
2023/10/17 04:04:18;;;;;;;2.10;0.93;;;;;;;15.71;65.22;98605.28;5125656;28;20044;-94
2023/10/17 04:06:48;;;;;;;4.10;0.73;;;;;;;15.93;64.85;98622.97;5122603;28;20075;-90
2023/10/17 04:09:17;;;;;;;1.05;0.60;;;;;;;15.85;63.90;98563.50;5121792;28;20062;-95
2023/10/17 04:11:49;;;;;;;1.30;1.20;;;;;;;15.79;64.54;98581.66;5127121;28;20106;-94
2023/10/17 04:14:17;;;;;;;2.53;1.23;;;;;;;15.94;64.94;98624.69;5122473;28;20040;-93
2023/10/17 04:16:46;;;;;;;1.45;1.35;;;;;;;15.31;65.92;98561.72;5119332;28;20036;-94
2023/10/17 04:19:17;;;;;;;2.58;1.17;;;;;;;15.38;66.03;98567.63;5116293;28;20061;-94
2023/10/17 04:21:46;;;;;;;3.03;0.80;;;;;;;15.34;65.80;98566.91;5118297;27;20451;-94
2023/10/17 04:24:26;;;;;;;2.95;1.33;;;;;;;15.65;65.64;98594.84;5123183;28;20135;-96
2023/10/17 04:27:05;;;;;;;1.90;0.60;;;;;;;15.45;65.68;98569.03;5122872;28;20036;-93
2023/10/17 04:29:31;;;;;;;1.98;0.93;;;;;;;15.61;65.93;98590.56;5121081;28;20060;-94
2023/10/17 04:31:57;;;;;;;2.03;0.70;;;;;;;15.75;65.45;98593.47;5126672;28;20062;-93
2023/10/17 04:34:26;;;;;;;3.45;1.20;;;;;;;15.70;65.43;98614.25;5127995;28;20051;-93
2023/10/17 04:36:53;;;;;;;3.10;1.27;;;;;;;15.30;66.14;98592.09;5116358;28;20036;-92
2023/10/17 04:39:34;;;;;;;4.00;1.23;;;;;;;15.44;66.71;98628.06;5121630;28;21381;-92
2023/10/17 04:44:52;;;;;;;5.50;0.63;;;;;;;15.33;67.01;98633.94;5100850;27;20727;-92
2023/10/17 04:50:36;;;;;;;1.13;0.52;;;;;;;15.48;65.67;98629.66;5123697;27;20375;-93
2023/10/17 04:53:03;;;;;;;3.78;0.60;;;;;;;15.21;65.83;98595.25;5087642;28;20150;-93
2023/10/17 04:55:40;;;;;;;3.60;0.52;;;;;;;15.46;65.52;98624.41;5092142;28;20048;-93
2023/10/17 04:58:30;;;;;;;2.45;0.50;;;;;;;15.41;65.07;98587.06;5126892;28;20037;-93
2023/10/17 05:01:34;;;;;;;5.10;0.50;;;;;;;15.32;64.77;98592.91;5079531;28;20135;-93
2023/10/17 06:18:57;;;;;;;3.40;1.15;;;;;;;15.59;64.76;98700.56;5138543;27;20379;-93
2023/10/17 06:30:29;;;;;;;2.72;0.43;;;;;;;16.00;63.27;98708.41;5135540;27;20373;-96
2023/10/17 06:33:16;;;;;;;1.38;0.52;;;;;;;15.75;62.71;98706.06;5134836;28;20798;-93
2023/10/17 06:35:45;;;;;;;1.55;0.40;;;;;;;15.81;63.11;98673.59;5116715;28;20043;-95
2023/10/17 06:38:15;;;;;;;1.38;0.40;;;;;;;16.29;62.27;98699.84;5134471;28;20039;-95
2023/10/17 06:40:45;;;;;;;1.27;0.43;;;;;;;16.22;62.38;98672.41;5134593;28;20061;-93
2023/10/17 06:43:27;;;;;;;2.25;0.80;;;;;;;16.49;62.18;98718.44;5129566;28;20096;-94
2023/10/17 06:45:57;;;;;;;2.40;0.70;;;;;;;16.22;62.13;98683.16;5127956;27;20111;-95
2023/10/17 06:51:33;;;;;;;0.90;0.50;;;;;;;16.45;63.20;98727.59;5160623;27;20751;-94
2023/10/17 06:57:20;;;;;;;2.33;0.50;;;;;;;16.72;60.39;98690.41;5106125;27;20387;-94
2023/10/17 06:59:46;;;;;;;1.42;0.55;;;;;;;16.59;60.47;98703.59;5080303;28;20032;-92
2023/10/17 07:02:27;;;;;;;0.88;0.43;;;;;;;16.92;59.98;98700.09;5081119;28;20040;-94
2023/10/17 07:04:55;;;;;;;1.48;0.43;;;;;;;16.64;59.67;98708.72;5076978;28;20079;-94
2023/10/17 07:07:23;;;;;;;1.27;0.43;;;;;;;17.11;59.73;98744.75;5082454;28;20051;-94
2023/10/17 07:09:52;;;;;;;1.42;0.60;;;;;;;16.83;58.73;98679.97;5081676;28;20037;-93
2023/10/17 07:12:20;;;;;;;;;;;;;;;17.37;59.38;98737.94;5082432;28;20047;-93
2023/10/17 07:14:51;;;;;;;3.28;0.50;;;;;;;17.07;59.87;98727.94;5083450;28;19946;-94
2023/10/17 07:17:26;;;;;;;3.03;0.63;;;;;;;16.93;59.59;98738.56;5096753;28;20040;-93
2023/10/17 07:19:59;;;;;;;2.58;0.75;;;;;;;17.03;59.46;98675.31;5086575;28;20032;-94
2023/10/17 07:22:26;;;;;;;13.68;1.27;;;;;;;17.34;58.17;98693.28;5085547;28;20045;-95
2023/10/17 07:24:52;;;;;;;2.70;0.50;;;;;;;17.48;58.09;98735.56;5084241;28;20032;-95
2023/10/17 07:27:26;;;;;;;3.13;0.52;;;;;;;16.98;58.21;98702.44;5084277;28;20553;-94
2023/10/17 07:32:56;;;;;;;2.47;0.52;;;;;;;17.71;57.44;98722.63;5117284;27;20377;-95
2023/10/17 07:35:23;;;;;;;2.22;0.70;;;;;;;18.01;56.55;98737.03;5117320;28;20090;-95
2023/10/17 07:37:54;;;;;;;0.77;0.40;;;;;;;17.44;57.49;98705.28;5135218;28;20043;-94
2023/10/17 07:40:22;;;;;;;1.95;0.35;;;;;;;17.59;56.16;98675.78;5117813;28;20107;-93
2023/10/17 07:42:49;;;;;;;0.98;0.63;;;;;;;17.97;55.93;98722.00;5111478;28;20055;-94
2023/10/17 07:45:15;;;;;;;1.77;0.75;;;;;;;18.01;55.92;98693.13;5114131;28;20130;-94
2023/10/17 07:47:42;;;;;;;2.15;0.47;;;;;;;18.12;55.46;98685.25;5100355;28;20194;-93
2023/10/17 07:50:13;;;;;;;1.60;0.40;;;;;;;18.54;55.36;98742.91;5115715;28;20040;-93
2023/10/17 07:52:42;;;;;;;1.75;0.60;;;;;;;18.65;54.96;98731.47;5107158;28;20145;-93
2023/10/17 07:58:09;;;;;;;1.17;0.55;;;;;;;18.29;55.36;98696.88;5142231;27;20385;-95
2023/10/17 08:00:36;;;;;;;1.00;0.50;;;;;;;17.95;55.75;98701.53;5108688;28;20082;-95
2023/10/17 08:03:14;;;;;;;4.28;0.95;;;;;;;17.59;57.23;98694.63;5114341;28;20051;-93
2023/10/17 08:08:43;;;;;;;4.07;1.00;;;;;;;18.40;55.26;98741.03;5151336;27;20380;-95
2023/10/17 08:14:26;;;;;;;2.25;0.52;;;;;;;18.71;54.40;98749.94;5111745;27;20388;-93
2023/10/17 08:16:55;;;;;;;2.05;0.45;;;;;;;18.21;55.52;98663.19;5093383;28;20048;-94
2023/10/17 08:19:22;;;;;;;1.08;0.30;;;;;;;18.63;54.84;98752.25;5107162;28;20028;-94
2023/10/17 08:24:51;;;;;;;2.88;0.93;;;;;;;18.41;54.47;98688.03;5157238;27;20363;-95
2023/10/17 08:30:14;;;;;;;1.55;0.65;;;;;;;19.09;52.52;98714.44;5058200;27;20385;-95
2023/10/17 08:32:54;;;;;;;4.63;0.60;;;;;;;19.00;53.70;98679.97;5092685;28;20079;-95
2023/10/17 08:35:20;;;;;;;1.02;0.68;;;;;;;19.43;52.36;98688.00;5057133;28;20041;-93
2023/10/17 08:37:46;;;;;;;2.80;0.63;;;;;;;19.80;52.62;98702.69;5059320;28;20045;-91
2023/10/17 08:43:15;;;;;;;3.88;1.30;;;;;;;19.50;51.51;98717.19;5130858;27;20378;-95
2023/10/17 08:45:41;;;;;;;1.45;0.38;;;;;;;19.36;51.98;98679.44;5097069;28;20055;-95
2023/10/17 08:48:09;;;;;;;2.58;0.57;;;;;;;19.45;51.49;98670.78;5098083;28;20044;-92
2023/10/17 08:50:39;;;;;;;2.33;0.90;;;;;;;19.75;52.14;98749.81;5098674;28;20132;-94
2023/10/17 08:53:12;;;;;;;0.85;0.50;;;;;;;19.39;51.48;98654.13;5101532;28;20480;-93
2023/10/17 08:55:40;;;;;;;1.77;0.68;;;;;;;19.70;51.21;98691.63;5099815;28;20096;-94
2023/10/17 08:58:08;;;;;;;0.93;0.47;;;;;;;19.77;51.02;98710.13;5100614;28;20139;-92
2023/10/17 09:03:40;;;;;;;0.90;0.40;;;;;;;19.76;51.31;98684.13;5100254;27;20747;-93
2023/10/17 09:06:28;;;;;;;1.15;0.40;;;;;;;20.28;50.63;98689.56;5098205;28;20040;-93
2023/10/17 09:08:56;;;;;;;0.70;0.40;;;;;;;20.09;51.56;98686.38;5083881;28;20086;-93
2023/10/17 09:11:30;;;;;;;2.90;0.50;;;;;;;20.02;51.25;98658.09;5095495;28;20048;-94
2023/10/17 09:17:10;;;;;;;1.83;0.45;;;;;;;19.80;51.52;98664.91;5098346;27;20409;-93
2023/10/17 09:19:40;;;;;;;;;;;;;;;20.51;50.86;98711.44;5100967;28;20024;-93
2023/10/17 09:22:10;;;;;;;1.35;1.25;;;;;;;20.28;50.06;98646.38;5098649;28;20354;-93
2023/10/17 09:24:37;;;;;;;2.10;0.80;;;;;;;20.56;49.29;98651.66;5100758;28;20107;-94
2023/10/17 09:27:06;;;;;;;2.45;0.60;;;;;;;21.04;49.14;98719.50;5098045;28;20036;-94
2023/10/17 09:29:42;;;;;;;1.65;0.50;;;;;;;21.02;48.53;98659.28;5097868;28;20051;-94
2023/10/17 09:32:09;;;;;;;1.80;0.52;;;;;;;20.00;50.54;98666.28;5093064;28;20124;-91
2023/10/17 09:34:38;;;;;;;1.55;0.60;;;;;;;20.30;49.54;98651.66;5101463;28;20064;-93
2023/10/17 09:37:05;;;;;;;2.47;0.63;;;;;;;20.36;50.35;98651.22;5100129;28;20028;-94
2023/10/17 09:39:34;;;;;;;1.58;0.50;;;;;;;20.76;48.80;98669.25;5099874;28;20068;-92
2023/10/17 09:42:00;;;;;;;0.75;0.52;;;;;;;21.00;48.33;98682.84;5099501;28;20036;-93
2023/10/17 09:44:26;;;;;;;1.85;0.77;;;;;;;21.09;47.91;98669.53;5099548;28;20024;-94
2023/10/17 09:46:55;;;;;;;2.60;0.50;;;;;;;21.03;48.47;98664.56;5099148;28;20040;-94
2023/10/17 09:49:29;;;;;;;;;;;;;;;20.79;49.30;98717.66;5099920;28;20448;-93
2023/10/17 09:51:56;;;;;;;0.98;0.32;;;;;;;20.31;49.51;98643.44;5099201;28;20460;-91
2023/10/17 09:54:22;;;;;;;1.63;0.80;;;;;;;20.54;50.13;98657.19;5100334;28;20059;-93
2023/10/17 09:56:50;;;;;;;1.02;0.60;;;;;;;21.07;48.83;98674.19;5097823;28;20112;-94
2023/10/17 09:59:20;;;;;;;0.75;0.47;;;;;;;21.40;47.21;98683.53;5100578;28;20032;-95
2023/10/17 10:01:49;;;;;;;1.15;0.52;;;;;;;20.78;49.10;98661.88;5093266;28;20040;-94
2023/10/17 10:04:17;;;;;;;1.00;0.57;;;;;;;20.99;48.66;98690.09;5094838;28;20047;-93
2023/10/17 10:06:44;;;;;;;2.15;0.82;;;;;;;21.42;48.15;98687.00;5099412;28;20040;-96
2023/10/17 10:09:26;;;;;;;2.25;0.70;;;;;;;21.59;47.07;98657.88;5099183;28;20050;-93
2023/10/17 10:11:58;;;;;;;2.35;0.75;;;;;;;20.86;49.45;98678.41;5086589;28;20036;-94
2023/10/17 10:14:43;;;;;;;0.82;0.55;;;;;;;21.60;47.85;98670.41;5097515;28;20066;-93
2023/10/17 10:17:11;;;;;;;1.33;0.47;;;;;;;21.79;46.61;98670.75;5096958;28;20040;-93
2023/10/17 10:19:59;;;;;;;1.83;0.60;;;;;;;22.16;46.36;98705.91;5097624;28;20132;-94
2023/10/17 10:22:52;;;;;;;2.85;0.60;;;;;;;22.33;46.89;98699.25;5099156;28;20032;-93
2023/10/17 10:25:20;;;;;;;1.75;0.40;;;;;;;21.68;46.72;98630.13;5096436;28;20036;-92
2023/10/17 10:27:49;;;;;;;1.25;0.80;;;;;;;21.52;47.02;98625.84;5086402;28;20055;-93
2023/10/17 10:30:33;;;;;;;0.85;0.63;;;;;;;22.21;46.89;98670.38;5086353;28;20043;-95
2023/10/17 10:32:59;;;;;;;1.23;0.50;;;;;;;22.11;46.04;98645.81;5083115;28;20036;-94
2023/10/17 10:35:26;;;;;;;2.28;0.63;;;;;;;22.00;46.37;98624.13;5084992;28;20037;-93
2023/10/17 10:37:54;;;;;;;2.05;0.65;;;;;;;21.77;46.66;98620.44;5084410;28;20047;-94
2023/10/17 10:40:22;;;;;;;2.38;0.70;;;;;;;21.64;47.04;98618.69;5084360;28;20048;-92
2023/10/17 10:42:50;;;;;;;2.90;0.52;;;;;;;21.93;46.60;98640.81;5082413;28;20041;-93
2023/10/17 10:48:46;;;;;;;1.70;0.60;;;;;;;21.73;47.48;98650.47;5168412;27;20352;-95
2023/10/17 10:51:15;;;;;;;0.95;0.55;;;;;;;21.41;48.91;98625.78;5139635;27;20078;-94
2023/10/17 10:53:44;;;;;;;3.80;0.60;;;;;;;21.25;47.97;98595.41;5138197;27;20043;-95
2023/10/17 10:56:11;;;;;;;2.95;0.60;;;;;;;21.77;47.21;98604.19;5138110;27;20035;-94
2023/10/17 10:58:44;;;;;;;1.45;0.70;;;;;;;21.58;47.46;98607.41;5142843;28;20054;-94
2023/10/17 11:01:12;;;;;;;1.92;0.70;;;;;;;21.42;47.87;98586.06;5122561;28;20047;-94
2023/10/17 11:03:41;;;;;;;1.85;0.40;;;;;;;21.72;47.61;98637.03;5140226;27;20046;-95
2023/10/17 11:06:08;;;;;;;3.03;0.60;;;;;;;21.40;47.12;98572.63;5143282;28;20104;-95
2023/10/17 11:08:36;;;;;;;1.73;0.70;;;;;;;21.68;46.83;98570.56;5141817;27;20031;-96
2023/10/17 11:11:04;;;;;;;1.85;0.70;;;;;;;21.87;46.83;98619.63;5140818;28;20447;-95
2023/10/17 11:13:31;;;;;;;1.75;0.60;;;;;;;21.02;48.01;98573.63;5139015;28;20110;-93
2023/10/17 11:15:57;;;;;;;2.10;0.57;;;;;;;21.30;48.12;98598.66;5130311;28;20035;-95
2023/10/17 11:18:23;;;;;;;1.77;0.50;;;;;;;21.43;47.44;98577.84;5138189;28;20073;-94
2023/10/17 11:20:56;;;;;;;3.25;0.70;;;;;;;21.96;45.93;98580.16;5142385;28;20046;-95
2023/10/17 11:23:27;;;;;;;2.17;0.50;;;;;;;21.83;46.87;98563.13;5137585;27;20130;-94
2023/10/17 11:25:53;;;;;;;3.00;0.60;;;;;;;21.02;48.59;98575.47;5140922;28;20542;-93
2023/10/17 11:28:21;;;;;;;2.30;0.55;;;;;;;21.56;48.06;98576.91;5140409;28;20058;-94
2023/10/17 11:30:48;;;;;;;2.05;0.70;;;;;;;21.70;47.91;98572.19;5143490;28;20043;-95
2023/10/17 11:33:16;;;;;;;1.70;0.47;;;;;;;22.00;47.03;98583.50;5145412;27;20039;-96
2023/10/17 11:35:47;;;;;;;0.82;0.50;;;;;;;21.54;47.99;98523.78;5153870;27;20035;-94
2023/10/17 11:38:33;;;;;;;2.08;0.55;;;;;;;21.72;48.12;98526.06;5162680;27;20427;-95
2023/10/17 11:41:00;;;;;;;1.45;0.43;;;;;;;22.28;46.81;98576.84;5160582;27;20039;-95
2023/10/17 11:43:28;;;;;;;2.63;0.68;;;;;;;22.22;47.44;98551.09;5133008;27;20082;-94
2023/10/17 11:45:56;;;;;;;2.60;0.50;;;;;;;21.97;47.16;98551.22;5133136;27;20066;-95
2023/10/17 11:48:27;;;;;;;1.10;0.50;;;;;;;22.49;46.40;98574.28;5128910;28;20043;-95
2023/10/17 11:51:07;;;;;;;3.80;0.65;;;;;;;22.34;46.40;98555.53;5135173;28;20039;-95
2023/10/17 11:53:34;;;;;;;2.65;0.52;;;;;;;22.38;46.84;98582.38;5133623;28;20051;-95
2023/10/17 11:56:01;;;;;;;1.50;0.47;;;;;;;22.27;45.92;98531.75;5130650;28;20131;-96
2023/10/17 11:58:29;;;;;;;1.88;0.50;;;;;;;22.19;46.65;98532.34;5128838;28;20035;-94
2023/10/17 12:00:55;;;;;;;2.95;0.75;;;;;;;22.39;46.50;98530.78;5118230;28;20479;-91
2023/10/17 12:03:23;;;;;;;2.78;0.70;;;;;;;22.17;47.08;98580.34;5113657;28;20492;-95
2023/10/17 12:05:49;;;;;;;1.00;0.47;;;;;;;22.33;46.55;98561.94;5116609;27;20040;-93
2023/10/17 12:08:22;;;;;;;2.20;0.50;;;;;;;22.25;46.34;98550.88;5116857;28;20096;-95
2023/10/17 12:10:50;;;;;;;2.33;0.50;;;;;;;22.27;45.85;98531.75;5136097;27;20101;-90
2023/10/17 12:13:17;;;;;;;1.02;0.50;;;;;;;22.16;47.25;98519.03;5115381;28;20127;-92
2023/10/17 12:15:44;;;;;;;3.33;0.98;;;;;;;21.79;47.99;98521.91;5112489;28;20040;-90
2023/10/17 12:18:10;;;;;;;2.95;0.52;;;;;;;22.46;46.91;98569.09;5114629;28;20027;-88
2023/10/17 12:20:40;;;;;;;1.33;0.52;;;;;;;22.57;46.35;98552.84;5112915;28;20036;-92
2023/10/17 12:23:14;;;;;;;1.05;0.40;;;;;;;22.27;46.03;98505.56;5113536;28;20073;-92
2023/10/17 12:25:42;;;;;;;2.65;0.57;;;;;;;22.44;45.87;98544.81;5130109;27;20052;-92
2023/10/17 12:28:09;;;;;;;5.43;0.88;;;;;;;22.56;45.82;98543.00;5114049;28;20038;-94
2023/10/17 12:30:36;;;;;;;2.40;0.60;;;;;;;22.59;46.51;98569.00;5113026;28;20036;-94
2023/10/17 12:33:03;;;;;;;1.77;0.60;;;;;;;22.67;47.56;98572.81;5131307;27;20035;-91
2023/10/17 12:35:28;;;;;;;1.88;0.50;;;;;;;22.30;46.77;98518.00;5130923;27;20047;-92
2023/10/17 12:37:57;;;;;;;1.52;0.75;;;;;;;22.48;46.20;98548.16;5114581;28;20036;-93
2023/10/17 12:40:24;;;;;;;3.88;0.70;;;;;;;22.67;47.06;98558.41;5111988;27;20500;-93
2023/10/17 12:42:51;;;;;;;2.55;0.60;;;;;;;21.90;47.59;98542.72;5113342;28;20040;-90
2023/10/17 12:45:19;;;;;;;0.85;0.50;;;;;;;22.09;47.14;98548.44;5111176;28;20515;-92
2023/10/17 12:47:45;;;;;;;2.28;0.70;;;;;;;22.32;46.64;98543.97;5112909;28;20066;-92
2023/10/17 12:50:11;;;;;;;4.68;0.70;;;;;;;22.75;47.51;98551.38;5116548;28;20036;-94
2023/10/17 12:52:37;;;;;;;1.58;0.50;;;;;;;22.77;46.56;98522.31;5115304;28;20040;-92
2023/10/17 12:55:04;;;;;;;2.15;0.75;;;;;;;22.74;46.22;98560.47;5112274;28;20049;-93
2023/10/17 12:57:30;;;;;;;1.70;0.50;;;;;;;22.60;46.06;98560.75;5109473;28;20104;-94
2023/10/17 12:59:59;;;;;;;2.72;0.90;;;;;;;22.05;47.58;98521.72;5114432;28;20130;-94
2023/10/17 13:02:29;;;;;;;1.60;0.60;;;;;;;22.83;46.85;98555.31;5110881;28;20043;-94
2023/10/17 13:04:55;;;;;;;3.53;0.70;;;;;;;22.33;46.36;98491.50;5113101;28;20051;-92
2023/10/17 13:07:23;;;;;;;2.35;0.70;;;;;;;22.89;45.70;98542.13;5113505;28;20043;-93
2023/10/17 13:09:49;;;;;;;1.30;0.47;;;;;;;22.45;46.65;98526.75;5113735;28;20035;-95
2023/10/17 13:12:14;;;;;;;1.63;0.40;;;;;;;22.10;46.20;98509.56;5111918;28;20032;-93
2023/10/17 13:14:40;;;;;;;1.80;0.55;;;;;;;22.46;46.48;98529.31;5111983;28;20040;-92
2023/10/17 13:17:11;;;;;;;3.67;0.75;;;;;;;22.61;46.02;98515.53;5112433;28;20066;-94
2023/10/17 13:19:42;;;;;;;1.73;0.80;;;;;;;22.43;46.70;98485.38;5112553;28;20366;-93
2023/10/17 13:22:14;;;;;;;2.92;0.75;;;;;;;22.77;46.66;98530.44;5112525;28;20040;-94
2023/10/17 13:24:40;;;;;;;1.52;0.52;;;;;;;22.66;46.03;98518.72;5112879;28;20039;-93
2023/10/17 13:27:06;;;;;;;2.22;0.70;;;;;;;22.71;45.93;98517.38;5113154;27;20113;-93
2023/10/17 13:29:32;;;;;;;1.70;0.57;;;;;;;22.80;45.14;98515.75;5112714;28;20040;-93
2023/10/17 13:31:58;;;;;;;3.70;0.95;;;;;;;22.75;45.13;98502.59;5112731;28;20378;-93
2023/10/17 13:34:27;;;;;;;3.22;0.70;;;;;;;22.65;45.94;98471.78;5113027;28;20038;-93
2023/10/17 13:36:54;;;;;;;2.35;0.73;;;;;;;22.85;46.17;98508.09;5112434;27;20097;-93
2023/10/17 13:39:22;;;;;;;2.08;0.70;;;;;;;22.45;46.44;98514.06;5110877;28;20062;-93
2023/10/17 13:41:48;;;;;;;1.00;0.60;;;;;;;22.60;46.53;98479.44;5108463;28;20043;-91
2023/10/17 13:44:15;;;;;;;2.72;0.75;;;;;;;22.43;46.75;98497.06;5112117;28;20457;-90
2023/10/17 13:46:41;;;;;;;1.75;0.65;;;;;;;22.69;44.99;98480.53;5111404;28;20582;-92
2023/10/17 13:49:08;;;;;;;4.07;0.68;;;;;;;22.87;45.74;98510.69;5112883;28;20042;-90
2023/10/17 13:51:34;;;;;;;1.15;0.50;;;;;;;22.73;45.70;98509.13;5109107;28;20043;-89
2023/10/17 13:54:05;;;;;;;1.52;0.68;;;;;;;22.87;45.92;98513.41;5130226;27;20048;-90
2023/10/17 13:56:33;;;;;;;4.47;1.48;;;;;;;22.68;45.13;98501.34;5110899;28;20091;-94
2023/10/17 13:58:59;;;;;;;1.88;0.63;;;;;;;22.85;45.66;98515.38;5111104;28;20509;-92
2023/10/17 14:01:31;;;;;;;3.45;0.50;;;;;;;22.66;45.96;98495.22;5112352;28;20036;-91
2023/10/17 14:03:58;;;;;;;3.22;1.15;;;;;;;22.65;46.35;98512.44;5130348;27;20093;-93
2023/10/17 14:06:33;;;;;;;3.65;1.33;;;;;;;22.37;46.35;98478.56;5112112;28;20481;-92
2023/10/17 14:09:02;;;;;;;1.83;0.50;;;;;;;22.55;46.76;98490.66;5095017;28;20032;-93
2023/10/17 14:11:28;;;;;;;1.13;0.65;;;;;;;22.68;46.69;98485.06;5111081;28;20111;-94
2023/10/17 14:13:54;;;;;;;3.40;0.70;;;;;;;22.81;46.41;98495.78;5113632;28;20035;-90
2023/10/17 14:16:22;;;;;;;0.90;0.50;;;;;;;22.81;46.27;98484.09;5108253;28;20044;-91
2023/10/17 14:18:52;;;;;;;1.35;0.63;;;;;;;22.77;46.10;98467.22;5109225;28;20032;-89